createdAt,value
2022-09-26T00:00:16.944Z,1.60
2022-09-26T00:05:18.576Z,1.67
2022-09-26T00:10:20.200Z,1.63
2022-09-26T00:15:22.876Z,1.65
2022-09-26T00:20:24.648Z,1.30
2022-09-26T00:25:26.903Z,1.58
2022-09-26T00:30:28.586Z,1.88
2022-09-26T00:35:30.408Z,1.70
2022-09-26T00:40:33.003Z,1.90
2022-09-26T00:45:34.839Z,1.80
2022-09-26T00:50:41.256Z,2.03
2022-09-26T00:55:50.118Z,2.30
2022-09-26T01:00:52.215Z,2.47
2022-09-26T01:05:54.825Z,2.30
2022-09-26T01:10:57.338Z,2.50
2022-09-26T01:15:59.058Z,2.60
2022-09-26T01:21:37.539Z,2.63
2022-09-26T01:27:18.902Z,2.78
2022-09-26T01:32:50.386Z,2.50
2022-09-26T01:38:24.876Z,2.25
2022-09-26T01:43:48.516Z,2.00
2022-09-26T01:48:58.711Z,2.15
2022-09-26T01:54:08.395Z,2.30
2022-09-26T01:59:24.859Z,2.13
2022-09-26T02:04:34.663Z,2.10
2022-09-26T02:09:48.956Z,2.25
2022-09-26T02:14:56.643Z,2.20
2022-09-26T02:20:14.906Z,2.45
2022-09-26T02:25:19.325Z,2.47
2022-09-26T02:30:21.099Z,1.92
2022-09-26T02:35:42.712Z,2.22
2022-09-26T02:40:57.984Z,2.10
2022-09-26T02:46:14.003Z,2.40
2022-09-26T02:51:44.474Z,2.72
2022-09-26T02:57:01.361Z,2.60
2022-09-26T03:02:13.393Z,2.93
2022-09-26T03:07:32.592Z,3.50
2022-09-26T03:17:39.162Z,3.60
2022-09-26T03:22:44.651Z,4.10
2022-09-26T03:27:47.130Z,3.55
2022-09-26T03:32:49.346Z,4.30
2022-09-26T03:37:51.001Z,4.20
2022-09-26T03:42:52.953Z,3.83
2022-09-26T03:47:58.411Z,4.10
2022-09-26T03:53:01.415Z,4.05
2022-09-26T03:58:03.103Z,4.38
2022-09-26T04:03:10.362Z,4.07
2022-09-26T04:08:14.543Z,3.78
2022-09-26T04:13:46.650Z,3.92
2022-09-26T04:18:40.228Z,4.00
2022-09-26T04:23:43.407Z,4.03
2022-09-26T04:28:47.390Z,3.90
2022-09-26T04:33:49.862Z,3.75
2022-09-26T04:38:52.033Z,3.70
2022-09-26T04:43:56.053Z,3.60
2022-09-26T04:48:59.871Z,3.78
2022-09-26T04:54:01.543Z,3.20
2022-09-26T04:59:07.606Z,3.53
2022-09-26T05:04:33.601Z,3.05
2022-09-26T05:09:36.254Z,3.33
2022-09-26T05:14:58.727Z,3.67
2022-09-26T05:20:00.966Z,3.22
2022-09-26T05:25:32.634Z,3.20
2022-09-26T05:30:37.384Z,3.30
2022-09-26T05:35:40.307Z,3.13
2022-09-26T05:40:57.312Z,3.10
2022-09-26T05:46:06.373Z,2.92
2022-09-26T05:51:16.595Z,3.30
2022-09-26T05:56:19.955Z,3.15
2022-09-26T06:01:39.737Z,3.20
2022-09-26T06:06:53.027Z,3.53
2022-09-26T06:11:54.666Z,3.45
2022-09-26T06:16:56.361Z,3.85
2022-09-26T06:21:58.039Z,3.85
2022-09-26T06:26:59.766Z,3.92
2022-09-26T06:32:01.771Z,4.03
2022-09-26T06:37:33.711Z,4.80
2022-09-26T06:42:37.838Z,4.60
2022-09-26T06:48:10.211Z,4.60
2022-09-26T06:53:31.388Z,4.95
2022-09-26T06:58:34.194Z,4.93
2022-09-26T07:03:45.170Z,5.43
2022-09-26T07:09:11.277Z,4.82
2022-09-26T07:14:21.561Z,4.80
2022-09-26T07:19:29.259Z,4.78
2022-09-26T07:24:37.429Z,4.53
2022-09-26T07:29:39.429Z,4.75
2022-09-26T07:34:42.767Z,5.13
2022-09-26T07:39:47.413Z,5.40
2022-09-26T07:45:21.934Z,4.65
2022-09-26T07:50:16.420Z,5.05
2022-09-26T07:55:31.785Z,4.07
2022-09-26T08:00:33.600Z,4.55
2022-09-26T08:05:48.150Z,4.00
2022-09-26T08:10:50.327Z,4.38
2022-09-26T08:16:06.379Z,4.60
2022-09-26T08:21:13.383Z,4.40
2022-09-26T08:26:15.623Z,4.72
2022-09-26T08:31:20.853Z,3.55
2022-09-26T08:36:22.958Z,3.85
2022-09-26T08:42:11.216Z,3.80
2022-09-26T08:47:43.906Z,3.20
2022-09-26T08:53:10.351Z,3.42
2022-09-26T08:58:26.606Z,3.17
2022-09-26T09:03:40.815Z,3.25
2022-09-26T09:08:56.281Z,3.10
2022-09-26T09:14:45.674Z,2.75
2022-09-26T09:20:51.570Z,2.80
2022-09-26T09:31:45.814Z,2.75
2022-09-26T09:37:08.391Z,2.40
2022-09-26T09:42:39.371Z,2.08
2022-09-26T09:47:42.530Z,2.40
2022-09-26T09:53:18.474Z,2.00
2022-09-26T09:58:25.476Z,2.33
2022-09-26T10:04:10.309Z,2.25
2022-09-26T10:09:36.441Z,2.63
2022-09-26T10:15:06.622Z,2.17
2022-09-26T10:20:37.458Z,2.40
2022-09-26T10:25:45.039Z,2.05
2022-09-26T10:30:49.947Z,2.30
2022-09-26T10:36:04.620Z,2.30
2022-09-26T10:41:13.063Z,2.45
2022-09-26T10:46:18.844Z,2.33
2022-09-26T10:51:48.709Z,2.13
2022-09-26T10:56:59.135Z,2.45
2022-09-26T11:02:03.812Z,2.00
2022-09-26T11:07:10.761Z,2.20
2022-09-26T11:12:29.697Z,1.80
2022-09-26T11:17:48.531Z,1.80
2022-09-26T11:23:02.731Z,1.90
2022-09-26T11:28:23.690Z,1.90
2022-09-26T11:33:46.710Z,2.13
2022-09-26T11:39:27.394Z,2.15
2022-09-26T11:44:40.674Z,1.60
2022-09-26T11:50:23.895Z,2.08
2022-09-26T11:56:15.811Z,1.90
2022-09-26T12:01:55.059Z,2.15
2022-09-26T12:07:03.502Z,2.15
2022-09-26T12:12:27.636Z,2.00
2022-09-26T12:17:49.599Z,1.90
2022-09-26T12:23:04.863Z,1.83
2022-09-26T12:28:42.191Z,1.70
2022-09-26T12:34:07.701Z,1.20
2022-09-26T12:39:33.677Z,1.55
2022-09-26T12:45:15.202Z,1.60
2022-09-26T12:50:39.478Z,1.30
2022-09-26T12:56:09.007Z,1.40
2022-09-26T13:01:55.981Z,1.20
2022-09-26T13:07:24.124Z,1.27
2022-09-26T13:13:05.302Z,1.13
2022-09-26T13:18:35.354Z,1.20
2022-09-26T13:23:57.729Z,1.00
2022-09-26T13:29:18.547Z,0.90
2022-09-26T13:34:50.181Z,1.13
2022-09-26T13:40:02.772Z,1.20
2022-09-26T13:45:25.443Z,1.80
2022-09-26T13:50:41.167Z,1.13
2022-09-26T13:55:43.419Z,1.15
2022-09-26T14:00:52.954Z,1.00
2022-09-26T14:06:08.574Z,1.00
2022-09-26T14:11:49.105Z,1.00
2022-09-26T14:16:56.718Z,1.00
2022-09-26T14:22:02.783Z,1.10
2022-09-26T14:27:10.275Z,0.93
2022-09-26T14:37:33.454Z,0.90
2022-09-26T14:42:57.002Z,1.03
2022-09-26T14:48:19.590Z,0.98
2022-09-26T14:53:40.132Z,1.30
2022-09-26T14:58:48.650Z,1.30
2022-09-26T15:04:08.276Z,1.00
2022-09-26T15:09:12.157Z,0.75
2022-09-26T15:14:37.540Z,1.00
2022-09-26T15:19:50.053Z,1.80
2022-09-26T15:24:54.661Z,1.10
2022-09-26T15:30:06.470Z,1.20
2022-09-26T15:35:13.815Z,1.00
2022-09-26T15:40:23.176Z,0.70
2022-09-26T15:45:33.198Z,1.15
2022-09-26T15:50:40.361Z,0.85
2022-09-26T15:56:08.404Z,1.00
2022-09-26T16:06:25.191Z,1.25
2022-09-26T16:11:27.473Z,1.40
2022-09-26T16:16:34.671Z,1.20
2022-09-26T16:21:37.602Z,1.40
2022-09-26T16:26:40.447Z,1.50
2022-09-26T16:31:47.422Z,1.30
2022-09-26T16:36:50.723Z,1.20
2022-09-26T16:42:01.907Z,1.38
2022-09-26T16:47:29.023Z,1.20
2022-09-26T16:52:35.358Z,1.40
2022-09-26T16:57:39.929Z,1.15
2022-09-26T17:02:42.181Z,1.23
2022-09-26T17:07:44.838Z,1.40
2022-09-26T17:12:53.494Z,1.30
2022-09-26T17:17:56.812Z,1.23
2022-09-26T17:23:11.997Z,1.30
2022-09-26T17:28:38.591Z,1.42
2022-09-26T17:33:41.913Z,1.40
2022-09-26T17:38:43.567Z,1.60
2022-09-26T17:43:45.212Z,1.77
2022-09-26T17:48:47.139Z,1.30
2022-09-26T17:53:52.195Z,1.45
2022-09-26T17:58:54.221Z,1.30
2022-09-26T18:04:00.308Z,1.38
2022-09-26T18:09:10.033Z,1.30
2022-09-26T18:14:15.508Z,1.17
2022-09-26T18:19:17.489Z,1.60
2022-09-26T18:24:20.104Z,1.30
2022-09-26T18:29:33.062Z,1.50
2022-09-26T18:34:34.746Z,1.40
2022-09-26T18:39:36.441Z,1.30
2022-09-26T18:44:38.322Z,1.42
2022-09-26T18:49:40.420Z,1.40
2022-09-26T18:54:44.627Z,1.80
2022-09-26T18:59:46.292Z,2.00
2022-09-26T19:04:48.528Z,1.70
2022-09-26T19:09:50.822Z,1.40
2022-09-26T19:14:52.414Z,1.60
2022-09-26T19:19:54.002Z,1.60
2022-09-26T19:24:59.877Z,1.48
2022-09-26T19:30:06.640Z,2.30
2022-09-26T19:35:24.258Z,1.97
2022-09-26T19:40:26.775Z,1.85
2022-09-26T19:45:32.143Z,1.88
2022-09-26T19:50:35.573Z,1.90
2022-09-26T19:55:37.457Z,2.00
2022-09-26T20:00:43.455Z,2.05
2022-09-26T20:05:47.046Z,1.80
2022-09-26T20:10:49.786Z,1.88
2022-09-26T20:15:51.581Z,1.70
2022-09-26T20:20:55.689Z,1.90
2022-09-26T20:25:57.385Z,1.92
2022-09-26T20:30:59.700Z,2.22
2022-09-26T20:36:04.216Z,1.63
2022-09-26T20:41:13.486Z,1.92
2022-09-26T20:46:15.652Z,1.80
2022-09-26T20:51:30.125Z,1.60
2022-09-26T20:56:32.011Z,1.65
2022-09-26T21:01:33.792Z,1.90
2022-09-26T21:06:36.499Z,1.70
2022-09-26T21:11:38.206Z,1.30
2022-09-26T21:16:44.307Z,1.63
2022-09-26T21:21:46.285Z,1.80
2022-09-26T21:26:54.748Z,1.30
2022-09-26T21:32:04.447Z,1.40
2022-09-26T21:37:08.370Z,1.60
2022-09-26T21:42:10.149Z,1.35
2022-09-26T21:47:11.794Z,1.27
2022-09-26T21:52:20.321Z,1.23
2022-09-26T21:57:26.878Z,1.20
2022-09-26T22:02:28.696Z,1.20
2022-09-26T22:07:30.438Z,0.93
2022-09-26T22:12:32.496Z,1.27
2022-09-26T22:17:34.170Z,1.17
2022-09-26T22:22:35.925Z,1.20
2022-09-26T22:27:38.238Z,1.23
2022-09-26T22:32:39.928Z,1.30
2022-09-26T22:37:41.540Z,1.10
2022-09-26T22:42:43.283Z,1.30
2022-09-26T22:47:44.922Z,1.25
2022-09-26T22:52:46.814Z,1.35
2022-09-26T22:57:51.153Z,1.67
2022-09-26T23:02:52.784Z,1.10
2022-09-26T23:07:54.755Z,1.40
2022-09-26T23:12:57.517Z,1.20
2022-09-26T23:17:59.132Z,1.15
2022-09-26T23:23:00.814Z,1.20
2022-09-26T23:28:05.170Z,1.30
2022-09-26T23:33:07.510Z,1.10
2022-09-26T23:38:09.150Z,1.10
2022-09-26T23:43:10.794Z,1.70
2022-09-26T23:48:12.399Z,1.92
2022-09-26T23:53:15.529Z,2.38
2022-09-26T23:58:17.664Z,2.47
